Time;durP1;ratioP1;P1;durP2;ratioP2;P2;SDS_P1;SDS_P2;PMS_P1;PMS_P2;Temp;Humidity;BMP_temperature;BMP_pressure;BME280_temperature;BME280_humidity;BME280_pressure;Samples;Min_cycle;Max_cycle;Signal;HPM_P1;HPM_P2
2022/01/07 00:01:14;;;;;;;5.10;3.00;;;;;;;;;;10245935;28;20062;-73
2022/01/07 00:06:18;;;;;;;5.13;2.80;;;;;;;;;;10229366;29;20110;-76
2022/01/07 00:11:22;;;;;;;5.27;1.60;;;;;;;;;;10225129;29;20520;-76
2022/01/07 00:16:25;;;;;;;3.57;2.00;;;;;;;;;;10225240;28;20130;-77
2022/01/07 00:21:28;;;;;;;7.23;2.17;;;;;;;;;;10238699;28;20054;-76
2022/01/07 00:26:32;;;;;;;10.37;2.73;;;;;;;;;;10224258;28;20048;-76
2022/01/07 00:31:35;;;;;;;;;;;;;;;;;;10224679;28;20051;-76
2022/01/07 00:36:38;;;;;;;9.57;4.20;;;;;;;;;;10222640;29;19937;-76
2022/01/07 00:41:42;;;;;;;3.47;1.47;;;;;;;;;;10223499;28;20044;-76
2022/01/07 00:46:45;;;;;;;8.10;3.45;;;;;;;;;;10223418;28;21316;-76
2022/01/07 00:51:48;;;;;;;6.13;2.37;;;;;;;;;;10236279;23;20243;-75
2022/01/07 00:56:52;;;;;;;7.60;2.50;;;;;;;;;;10198178;29;20044;-75
2022/01/07 01:01:55;;;;;;;4.95;3.05;;;;;;;;;;10200640;29;20032;-76
2022/01/07 01:07:16;;;;;;;4.73;2.27;;;;;;;;;;10200968;29;20040;-76
2022/01/07 01:12:20;;;;;;;2.60;1.13;;;;;;;;;;10197521;29;20115;-76
2022/01/07 01:17:23;;;;;;;;;;;;;;;;;;10200918;29;20051;-76
2022/01/07 01:22:26;;;;;;;1.77;1.17;;;;;;;;;;10204780;29;20065;-76
2022/01/07 01:27:30;;;;;;;8.57;2.83;;;;;;;;;;10203929;28;20130;-76
2022/01/07 01:32:33;;;;;;;;;;;;;;;;;;10260500;23;20027;-78
2022/01/07 01:37:36;;;;;;;3.90;1.70;;;;;;;;;;10256354;28;20382;-79
2022/01/07 01:42:40;;;;;;;1.67;1.03;;;;;;;;;;10243997;28;20087;-78
2022/01/07 01:47:49;;;;;;;3.30;1.43;;;;;;;;;;10252589;28;20621;-78
2022/01/07 01:52:54;;;;;;;0.90;0.87;;;;;;;;;;10248080;28;20060;-78
2022/01/07 01:57:59;;;;;;;2.57;1.30;;;;;;;;;;10249965;28;20048;-78
2022/01/07 02:03:02;;;;;;;3.33;1.80;;;;;;;;;;10248280;28;20074;-77
2022/01/07 02:08:05;;;;;;;1.63;0.40;;;;;;;;;;10269359;28;20043;-78
2022/01/07 02:13:10;;;;;;;3.70;1.40;;;;;;;;;;10261286;28;20063;-78
2022/01/07 02:18:20;;;;;;;5.93;1.70;;;;;;;;;;10258551;28;20113;-78
2022/01/07 02:23:25;;;;;;;0.90;0.80;;;;;;;;;;10261304;28;20058;-79
2022/01/07 02:28:28;;;;;;;3.23;1.60;;;;;;;;;;10272864;28;20055;-79
2022/01/07 02:33:31;;;;;;;6.23;1.00;;;;;;;;;;10275064;28;20097;-79
2022/01/07 02:38:36;;;;;;;1.70;0.90;;;;;;;;;;10259658;28;20092;-78
2022/01/07 02:43:39;;;;;;;3.63;1.70;;;;;;;;;;10250220;28;20688;-79
2022/01/07 02:48:42;;;;;;;2.53;1.67;;;;;;;;;;10261609;28;20066;-76
2022/01/07 02:53:46;;;;;;;3.87;1.60;;;;;;;;;;10284363;28;20046;-78
2022/01/07 02:58:48;;;;;;;;;;;;;;;;;;10277444;28;20062;-78
2022/01/07 03:03:52;;;;;;;1.60;0.77;;;;;;;;;;10275008;28;19922;-79
2022/01/07 03:08:56;;;;;;;2.65;1.92;;;;;;;;;;10265344;28;20043;-79
2022/01/07 03:14:00;;;;;;;3.70;1.37;;;;;;;;;;10269952;28;20046;-79
2022/01/07 03:19:03;;;;;;;3.03;1.08;;;;;;;;;;10252666;28;20036;-78
2022/01/07 03:24:07;;;;;;;5.40;1.57;;;;;;;;;;10276249;28;20051;-77
2022/01/07 03:29:10;;;;;;;3.17;1.40;;;;;;;;;;10282562;28;20047;-79
2022/01/07 03:34:13;;;;;;;3.13;1.23;;;;;;;;;;10248912;28;20040;-79
2022/01/07 03:39:17;;;;;;;1.93;1.17;;;;;;;;;;10250408;28;20119;-78
2022/01/07 03:44:20;;;;;;;2.33;1.47;;;;;;;;;;10242001;28;20053;-78
2022/01/07 03:49:23;;;;;;;5.60;1.70;;;;;;;;;;10261538;28;20402;-78
2022/01/07 03:54:27;;;;;;;1.97;1.33;;;;;;;;;;10263609;28;20039;-78
2022/01/07 03:59:32;;;;;;;0.83;0.63;;;;;;;;;;10243670;28;20080;-78
2022/01/07 04:04:35;;;;;;;;;;;;;;;;;;10244207;28;20130;-78
2022/01/07 04:09:40;;;;;;;0.57;0.57;;;;;;;;;;10264203;28;20329;-79
2022/01/07 04:14:43;;;;;;;1.23;1.00;;;;;;;;;;10253017;28;20047;-79
2022/01/07 04:19:46;;;;;;;0.00;0.00;;;;;;;;;;10260927;28;20468;-80
2022/01/07 04:24:50;;;;;;;0.47;0.20;;;;;;;;;;10270966;28;20130;-79
2022/01/07 04:29:53;;;;;;;1.20;0.50;;;;;;;;;;10271447;28;20447;-78
2022/01/07 04:34:56;;;;;;;1.30;1.20;;;;;;;;;;10291317;28;20090;-77
2022/01/07 04:40:00;;;;;;;5.40;1.10;;;;;;;;;;10258507;28;20034;-78
2022/01/07 04:45:04;;;;;;;0.20;0.10;;;;;;;;;;10247670;28;20043;-79
2022/01/07 04:50:08;;;;;;;0.37;0.37;;;;;;;;;;10258322;28;20044;-77
2022/01/07 04:55:13;;;;;;;1.90;0.67;;;;;;;;;;10253508;28;20576;-78
2022/01/07 05:00:17;;;;;;;0.70;0.30;;;;;;;;;;10262221;28;20036;-77
2022/01/07 05:05:20;;;;;;;1.88;0.68;;;;;;;;;;10262525;28;20122;-78
2022/01/07 05:10:24;;;;;;;0.30;0.10;;;;;;;;;;10275904;28;20047;-78
2022/01/07 05:15:27;;;;;;;0.30;0.30;;;;;;;;;;10273942;28;20498;-78
2022/01/07 05:20:30;;;;;;;0.10;0.10;;;;;;;;;;10252561;28;20058;-79
2022/01/07 05:25:35;;;;;;;3.30;1.03;;;;;;;;;;10257092;28;20035;-79
2022/01/07 05:30:38;;;;;;;1.83;0.47;;;;;;;;;;10272963;28;20051;-78
2022/01/07 05:35:41;;;;;;;1.83;0.67;;;;;;;;;;10254792;28;20428;-79
2022/01/07 05:40:45;;;;;;;1.30;0.37;;;;;;;;;;10267007;28;20059;-78
2022/01/07 05:45:48;;;;;;;0.93;0.57;;;;;;;;;;10253173;28;20108;-79
2022/01/07 05:50:56;;;;;;;0.30;0.20;;;;;;;;;;10266459;28;20420;-79
2022/01/07 05:56:00;;;;;;;2.00;0.70;;;;;;;;;;10267243;28;20122;-78
2022/01/07 06:01:05;;;;;;;0.77;0.33;;;;;;;;;;10256427;28;20086;-80
2022/01/07 06:06:09;;;;;;;0.83;0.50;;;;;;;;;;10258799;28;20440;-76
2022/01/07 06:11:13;;;;;;;1.60;0.73;;;;;;;;;;10269101;28;20070;-77
2022/01/07 06:16:15;;;;;;;;;;;;;;;;;;10269968;28;20035;-77
2022/01/07 06:21:18;;;;;;;1.13;0.90;;;;;;;;;;10251446;28;19961;-78
2022/01/07 06:26:23;;;;;;;0.30;0.30;;;;;;;;;;10255402;28;20046;-77
2022/01/07 06:31:26;;;;;;;0.00;0.00;;;;;;;;;;10243511;28;20035;-78
2022/01/07 06:36:29;;;;;;;1.27;0.37;;;;;;;;;;10239522;28;20130;-77
2022/01/07 06:41:35;;;;;;;3.15;1.02;;;;;;;;;;10267072;28;20540;-79
2022/01/07 06:46:38;;;;;;;3.07;0.97;;;;;;;;;;10242727;28;20039;-80
2022/01/07 06:51:41;;;;;;;0.70;0.60;;;;;;;;;;10255934;28;20132;-80
2022/01/07 06:56:46;;;;;;;1.95;0.70;;;;;;;;;;10230270;28;20126;-78
2022/01/07 07:01:48;;;;;;;1.83;1.00;;;;;;;;;;10242459;28;20146;-78
2022/01/07 07:06:52;;;;;;;2.23;1.50;;;;;;;;;;10252651;23;20062;-73
2022/01/07 07:11:56;;;;;;;3.97;1.90;;;;;;;;;;10228503;28;20043;-73
2022/01/07 07:16:59;;;;;;;2.70;1.03;;;;;;;;;;10227676;28;20447;-71
2022/01/07 07:22:02;;;;;;;2.93;0.63;;;;;;;;;;10227649;28;20158;-72
2022/01/07 07:27:06;;;;;;;1.37;0.73;;;;;;;;;;10228437;28;20043;-71
2022/01/07 07:32:23;;;;;;;1.50;0.97;;;;;;;;;;10640841;27;20523;-74
2022/01/07 07:37:26;;;;;;;2.73;1.07;;;;;;;;;;10589318;27;20031;-74
2022/01/07 07:42:29;;;;;;;0.90;0.60;;;;;;;;;;10587017;27;20518;-74
2022/01/07 07:47:34;;;;;;;3.53;1.60;;;;;;;;;;10608471;27;20072;-74
2022/01/07 07:52:37;;;;;;;1.10;0.70;;;;;;;;;;10591871;27;20078;-73
2022/01/07 07:57:40;;;;;;;1.50;1.08;;;;;;;;;;10591719;27;20180;-76
2022/01/07 08:02:45;;;;;;;6.80;1.87;;;;;;;;;;10596326;27;20040;-76
2022/01/07 08:07:48;;;;;;;4.95;1.85;;;;;;;;;;10591031;27;20132;-75
2022/01/07 08:13:03;;;;;;;4.15;1.60;;;;;;;;;;10592438;27;20039;-75
2022/01/07 08:18:08;;;;;;;4.63;1.20;;;;;;;;;;10586787;27;20424;-75
2022/01/07 08:23:11;;;;;;;2.00;0.87;;;;;;;;;;10587807;27;20062;-75
2022/01/07 08:28:15;;;;;;;3.17;1.15;;;;;;;;;;10592395;27;20046;-75
2022/01/07 08:38:40;;;;;;;2.03;0.90;;;;;;;;;;10588444;27;20499;-76
2022/01/07 08:43:43;;;;;;;0.83;0.83;;;;;;;;;;10582061;27;20041;-75
2022/01/07 08:48:48;;;;;;;1.58;1.00;;;;;;;;;;10571411;27;20066;-75
2022/01/07 08:53:51;;;;;;;2.07;1.00;;;;;;;;;;10568961;27;20061;-75
2022/01/07 08:58:54;;;;;;;2.10;1.07;;;;;;;;;;10570170;27;20407;-75
2022/01/07 09:03:58;;;;;;;3.20;1.43;;;;;;;;;;10597074;27;20039;-75
2022/01/07 09:09:01;;;;;;;3.13;1.43;;;;;;;;;;10565541;27;20495;-74
2022/01/07 09:14:04;;;;;;;1.80;1.20;;;;;;;;;;10551133;27;20043;-76
2022/01/07 09:19:09;;;;;;;1.57;0.77;;;;;;;;;;10566838;27;20512;-75
2022/01/07 09:24:11;;;;;;;;;;;;;;;;;;10565051;27;20032;-75
2022/01/07 09:29:14;;;;;;;5.73;1.90;;;;;;;;;;10602784;27;19928;-73
2022/01/07 09:34:18;;;;;;;4.13;1.85;;;;;;;;;;10563952;27;20612;-77
2022/01/07 09:39:32;;;;;;;4.07;1.52;;;;;;;;;;10566001;27;20440;-75
2022/01/07 09:44:37;;;;;;;3.40;1.90;;;;;;;;;;10565337;27;20066;-76
2022/01/07 09:49:42;;;;;;;3.08;1.67;;;;;;;;;;10563152;27;20050;-76
2022/01/07 09:54:45;;;;;;;1.92;1.00;;;;;;;;;;10566301;27;20040;-75
2022/01/07 09:59:52;;;;;;;2.45;1.20;;;;;;;;;;10564886;27;20038;-76
2022/01/07 10:04:56;;;;;;;0.45;0.45;;;;;;;;;;10555374;27;20035;-74
2022/01/07 10:10:01;;;;;;;1.83;1.02;;;;;;;;;;10559048;27;20216;-74
2022/01/07 10:15:14;;;;;;;1.48;1.30;;;;;;;;;;10574446;27;20487;-76
2022/01/07 10:20:22;;;;;;;3.75;1.30;;;;;;;;;;10574518;27;20272;-74
2022/01/07 10:25:26;;;;;;;2.83;1.33;;;;;;;;;;10558410;27;20035;-76
2022/01/07 10:30:29;;;;;;;;;;;;;;;;;;10560437;27;20712;-74
2022/01/07 10:35:37;;;;;;;1.67;0.57;;;;;;;;;;10566611;27;19963;-74
2022/01/07 10:40:41;;;;;;;1.40;1.00;;;;;;;;;;10554978;27;20496;-75
2022/01/07 10:45:44;;;;;;;5.07;1.30;;;;;;;;;;10557963;27;20068;-75
2022/01/07 10:50:50;;;;;;;2.03;1.20;;;;;;;;;;10579330;27;20074;-74
2022/01/07 10:56:01;;;;;;;0.50;0.50;;;;;;;;;;10586902;27;20749;-74
2022/01/07 11:01:03;;;;;;;2.35;1.40;;;;;;;;;;10569579;27;20051;-75
2022/01/07 11:06:08;;;;;;;1.00;0.93;;;;;;;;;;10564171;27;20078;-75
2022/01/07 11:11:11;;;;;;;1.75;1.20;;;;;;;;;;10547985;27;20152;-73
2022/01/07 11:16:15;;;;;;;0.88;0.80;;;;;;;;;;10558978;27;20036;-75
2022/01/07 11:21:20;;;;;;;0.70;0.68;;;;;;;;;;10561667;27;20040;-76
2022/01/07 11:26:23;;;;;;;1.02;0.90;;;;;;;;;;10556008;28;20039;-74
2022/01/07 11:31:27;;;;;;;2.07;1.00;;;;;;;;;;10547763;28;20036;-74
2022/01/07 11:36:37;;;;;;;3.70;1.67;;;;;;;;;;10556044;28;20109;-75
2022/01/07 11:41:44;;;;;;;1.40;1.02;;;;;;;;;;10546161;28;20411;-75
2022/01/07 11:46:47;;;;;;;0.77;0.75;;;;;;;;;;10555249;28;20047;-76
2022/01/07 11:51:51;;;;;;;1.85;0.90;;;;;;;;;;10554606;28;20040;-74
2022/01/07 11:57:10;;;;;;;2.20;1.20;;;;;;;;;;10562477;28;20042;-79
2022/01/07 12:02:14;;;;;;;2.45;1.00;;;;;;;;;;10555319;28;20340;-74
2022/01/07 12:07:18;;;;;;;4.47;1.40;;;;;;;;;;10548492;28;20043;-74
2022/01/07 12:12:21;;;;;;;4.55;1.25;;;;;;;;;;10559156;28;20118;-76
2022/01/07 12:17:25;;;;;;;8.23;1.10;;;;;;;;;;10565768;27;20031;-76
2022/01/07 12:22:29;;;;;;;0.82;0.65;;;;;;;;;;10564604;27;20052;-75
2022/01/07 12:27:32;;;;;;;1.77;1.10;;;;;;;;;;10574096;27;20036;-74
2022/01/07 12:32:36;;;;;;;0.60;0.50;;;;;;;;;;10570336;27;20031;-76
2022/01/07 12:37:40;;;;;;;2.17;1.20;;;;;;;;;;10566330;27;20052;-75
2022/01/07 12:42:44;;;;;;;3.38;1.13;;;;;;;;;;10576561;27;20028;-75
2022/01/07 12:47:47;;;;;;;1.90;1.17;;;;;;;;;;10564930;27;20039;-75
2022/01/07 12:52:51;;;;;;;4.07;1.20;;;;;;;;;;10557195;27;20126;-75
2022/01/07 12:57:58;;;;;;;3.90;1.37;;;;;;;;;;10597750;27;20661;-74
2022/01/07 13:03:03;;;;;;;2.37;1.00;;;;;;;;;;10570443;27;20028;-76
2022/01/07 13:08:10;;;;;;;3.67;1.50;;;;;;;;;;10550882;27;20035;-74
2022/01/07 13:13:13;;;;;;;2.90;1.13;;;;;;;;;;10562287;27;20147;-73
2022/01/07 13:18:17;;;;;;;3.03;1.25;;;;;;;;;;10562984;27;20066;-75
2022/01/07 13:23:24;;;;;;;3.80;1.77;;;;;;;;;;10557600;27;20047;-74
2022/01/07 13:28:31;;;;;;;2.30;1.20;;;;;;;;;;10545889;27;20063;-76
2022/01/07 13:33:35;;;;;;;5.13;2.07;;;;;;;;;;10550172;28;20056;-75
2022/01/07 13:38:59;;;;;;;4.70;1.70;;;;;;;;;;10555938;27;20500;-75
2022/01/07 13:44:03;;;;;;;5.70;1.90;;;;;;;;;;10560408;27;20380;-76
2022/01/07 13:49:08;;;;;;;3.67;1.63;;;;;;;;;;10560898;27;20167;-75
2022/01/07 13:54:13;;;;;;;1.50;0.68;;;;;;;;;;10559186;27;20071;-75
2022/01/07 13:59:16;;;;;;;2.27;1.00;;;;;;;;;;10560508;27;20038;-74
2022/01/07 14:04:20;;;;;;;0.73;0.33;;;;;;;;;;10562525;27;20040;-75
2022/01/07 14:09:25;;;;;;;0.77;0.50;;;;;;;;;;10558551;27;20039;-76
2022/01/07 14:14:35;;;;;;;1.70;1.00;;;;;;;;;;10556978;27;20532;-75
2022/01/07 14:19:54;;;;;;;2.33;0.80;;;;;;;;;;10566212;27;20637;-76
2022/01/07 14:24:59;;;;;;;1.73;0.73;;;;;;;;;;10554231;27;20576;-76
2022/01/07 14:30:02;;;;;;;2.47;0.67;;;;;;;;;;10559501;27;20052;-77
2022/01/07 14:35:08;;;;;;;3.20;1.43;;;;;;;;;;10557318;27;20143;-75
2022/01/07 14:40:13;;;;;;;2.73;1.50;;;;;;;;;;10543605;28;20395;-74
2022/01/07 14:45:16;;;;;;;1.30;0.80;;;;;;;;;;10560271;27;20039;-76
2022/01/07 14:50:19;;;;;;;1.10;0.30;;;;;;;;;;10548618;27;20101;-75
2022/01/07 14:55:34;;;;;;;1.93;0.93;;;;;;;;;;10555821;27;20437;-75
2022/01/07 15:00:37;;;;;;;1.60;1.00;;;;;;;;;;10543712;27;20069;-74
2022/01/07 15:05:40;;;;;;;6.38;1.73;;;;;;;;;;10543483;27;20040;-75
2022/01/07 15:10:45;;;;;;;1.37;0.70;;;;;;;;;;10552114;27;20064;-75
2022/01/07 15:21:11;;;;;;;4.37;0.57;;;;;;;;;;10549118;28;20126;-73
2022/01/07 15:26:15;;;;;;;3.47;1.00;;;;;;;;;;10574718;28;20102;-73
2022/01/07 15:31:18;;;;;;;1.65;0.80;;;;;;;;;;10583507;28;20467;-77
2022/01/07 15:36:21;;;;;;;0.83;0.60;;;;;;;;;;10548968;28;20055;-75
2022/01/07 15:41:25;;;;;;;1.23;0.50;;;;;;;;;;10546554;28;20040;-75
2022/01/07 15:46:28;;;;;;;;;;;;;;;;;;10550253;28;20490;-74
2022/01/07 15:51:31;;;;;;;4.90;1.60;;;;;;;;;;10555016;27;19927;-76
2022/01/07 15:56:36;;;;;;;1.70;1.10;;;;;;;;;;10557375;27;20104;-73
2022/01/07 16:01:39;;;;;;;0.90;0.50;;;;;;;;;;10551952;27;21446;-75
2022/01/07 16:06:42;;;;;;;3.38;1.33;;;;;;;;;;10558616;27;20119;-76
2022/01/07 16:11:47;;;;;;;0.80;0.43;;;;;;;;;;10558438;27;20035;-76
2022/01/07 16:16:51;;;;;;;;;;;;;;;;;;10559564;27;20097;-75
2022/01/07 16:21:54;;;;;;;3.88;1.85;;;;;;;;;;10580159;27;19992;-75
2022/01/07 16:26:58;;;;;;;3.33;1.80;;;;;;;;;;10561992;27;20040;-75
2022/01/07 16:32:01;;;;;;;3.57;0.97;;;;;;;;;;10563689;27;20490;-75
2022/01/07 16:37:04;;;;;;;6.70;1.57;;;;;;;;;;10564908;27;20572;-77
2022/01/07 16:42:10;;;;;;;5.90;2.30;;;;;;;;;;10574022;27;20142;-74
2022/01/07 16:47:13;;;;;;;7.60;2.73;;;;;;;;;;10568244;27;20066;-76
2022/01/07 16:52:16;;;;;;;2.40;1.30;;;;;;;;;;10582560;27;20070;-77
2022/01/07 16:57:20;;;;;;;3.17;1.50;;;;;;;;;;10593332;27;20511;-74
2022/01/07 17:02:23;;;;;;;;;;;;;;;;;;10588473;27;20052;-76
2022/01/07 17:07:26;;;;;;;3.43;1.67;;;;;;;;;;10564419;27;19924;-76
2022/01/07 17:12:30;;;;;;;7.07;1.23;;;;;;;;;;10563592;27;20391;-72
2022/01/07 17:17:33;;;;;;;;;;;;;;;;;;10557785;27;20061;-76
2022/01/07 17:22:36;;;;;;;2.90;1.50;;;;;;;;;;10563253;27;19930;-75
2022/01/07 17:27:40;;;;;;;3.47;1.30;;;;;;;;;;10563676;27;20051;-76
2022/01/07 17:32:43;;;;;;;1.73;1.03;;;;;;;;;;10565971;27;20028;-76
2022/01/07 17:37:46;;;;;;;1.67;1.17;;;;;;;;;;10559201;27;20039;-74
2022/01/07 17:42:50;;;;;;;3.57;1.50;;;;;;;;;;10551426;27;20028;-76
2022/01/07 17:47:54;;;;;;;;;;;;;;;;;;10562187;27;20498;-76
2022/01/07 17:52:57;;;;;;;1.37;1.23;;;;;;;;;;10562267;27;19924;-75
2022/01/07 17:58:02;;;;;;;3.33;1.50;;;;;;;;;;10561200;27;20043;-75
2022/01/07 18:03:04;;;;;;;;;;;;;;;;;;10553973;27;20040;-75
2022/01/07 18:08:07;;;;;;;1.43;0.80;;;;;;;;;;10563728;27;20019;-75
2022/01/07 18:13:11;;;;;;;2.60;1.10;;;;;;;;;;10575993;27;20043;-73
2022/01/07 18:18:34;;;;;;;1.95;0.93;;;;;;;;;;10561319;27;20036;-76
2022/01/07 18:23:39;;;;;;;3.77;1.60;;;;;;;;;;10557970;27;20139;-75
2022/01/07 18:28:44;;;;;;;2.63;0.93;;;;;;;;;;10571489;27;20104;-74
2022/01/07 18:33:47;;;;;;;1.10;0.83;;;;;;;;;;10588361;27;20063;-74
2022/01/07 18:38:50;;;;;;;2.10;0.87;;;;;;;;;;10598553;27;20064;-74
2022/01/07 18:43:54;;;;;;;1.50;0.40;;;;;;;;;;10602826;27;20031;-74
2022/01/07 18:48:58;;;;;;;3.57;1.20;;;;;;;;;;10592046;27;20159;-73
2022/01/07 18:54:01;;;;;;;2.35;1.30;;;;;;;;;;10605957;27;20023;-76
2022/01/07 18:59:06;;;;;;;3.57;1.83;;;;;;;;;;10581639;27;20031;-76
2022/01/07 19:04:09;;;;;;;1.90;0.70;;;;;;;;;;10568018;27;20036;-77
2022/01/07 19:09:13;;;;;;;2.87;1.20;;;;;;;;;;10569288;27;20529;-75
2022/01/07 19:14:17;;;;;;;2.10;1.17;;;;;;;;;;10558920;27;20031;-75
2022/01/07 19:19:20;;;;;;;1.30;0.77;;;;;;;;;;10557582;27;20116;-73
2022/01/07 19:24:23;;;;;;;1.23;1.00;;;;;;;;;;10578207;27;20035;-76
2022/01/07 19:29:27;;;;;;;2.33;1.23;;;;;;;;;;10581607;27;20066;-73
2022/01/07 19:34:30;;;;;;;0.50;0.50;;;;;;;;;;10560892;28;20727;-75
2022/01/07 19:39:33;;;;;;;1.23;0.47;;;;;;;;;;10570461;27;20073;-75
2022/01/07 19:44:38;;;;;;;0.50;0.40;;;;;;;;;;10579433;28;20040;-76
2022/01/07 19:49:41;;;;;;;3.27;2.00;;;;;;;;;;10559149;28;20056;-75
2022/01/07 19:54:44;;;;;;;1.95;1.13;;;;;;;;;;10569316;28;20028;-74
2022/01/07 19:59:49;;;;;;;5.77;2.03;;;;;;;;;;10618032;28;20054;-73
2022/01/07 20:04:52;;;;;;;3.03;1.73;;;;;;;;;;10571366;28;20096;-75
2022/01/07 20:09:55;;;;;;;2.33;1.40;;;;;;;;;;10555613;28;20039;-74
2022/01/07 20:14:59;;;;;;;5.30;1.73;;;;;;;;;;10558516;28;20032;-75
2022/01/07 20:20:02;;;;;;;2.00;1.23;;;;;;;;;;10572036;28;20039;-76
2022/01/07 20:25:06;;;;;;;3.57;2.10;;;;;;;;;;10566533;28;20027;-76
2022/01/07 20:30:11;;;;;;;3.90;1.25;;;;;;;;;;10557434;28;20523;-76
2022/01/07 20:35:15;;;;;;;4.93;1.50;;;;;;;;;;10560382;28;20172;-77
2022/01/07 20:40:19;;;;;;;0.65;0.50;;;;;;;;;;10564773;27;20163;-76
2022/01/07 20:45:23;;;;;;;2.58;0.68;;;;;;;;;;10571248;27;20031;-73
2022/01/07 20:50:26;;;;;;;;;;;;;;;;;;10572953;27;20180;-75
2022/01/07 20:55:29;;;;;;;2.43;1.00;;;;;;;;;;10571163;27;20383;-74
2022/01/07 21:00:33;;;;;;;1.47;0.93;;;;;;;;;;10569413;27;20031;-76
2022/01/07 21:05:36;;;;;;;1.87;1.00;;;;;;;;;;10569345;27;20039;-75
2022/01/07 21:10:39;;;;;;;1.20;0.60;;;;;;;;;;10564146;27;20135;-73
2022/01/07 21:15:44;;;;;;;4.20;1.83;;;;;;;;;;10573487;27;20385;-75
2022/01/07 21:20:47;;;;;;;;;;;;;;;;;;10573031;27;20042;-74
2022/01/07 21:25:50;;;;;;;1.30;1.00;;;;;;;;;;10567446;27;20034;-77
2022/01/07 21:30:55;;;;;;;2.20;1.43;;;;;;;;;;10573184;27;20028;-76
2022/01/07 21:35:58;;;;;;;3.17;1.00;;;;;;;;;;10563071;27;20039;-75
2022/01/07 21:41:00;;;;;;;3.57;1.87;;;;;;;;;;10565047;27;20044;-77
2022/01/07 21:46:05;;;;;;;1.37;1.00;;;;;;;;;;10558254;27;20036;-77
2022/01/07 21:51:08;;;;;;;3.70;1.50;;;;;;;;;;10554514;27;20038;-75
2022/01/07 21:56:11;;;;;;;2.50;1.47;;;;;;;;;;10549180;27;20063;-76
2022/01/07 22:01:33;;;;;;;2.20;1.40;;;;;;;;;;10563713;27;20059;-75
2022/01/07 22:06:37;;;;;;;3.73;1.80;;;;;;;;;;10569949;27;20047;-75
2022/01/07 22:11:40;;;;;;;;;;;;;;;;;;10543102;22;20071;-77
2022/01/07 22:16:43;;;;;;;4.10;1.50;;;;;;;;;;10457395;28;20020;-78
2022/01/07 22:21:47;;;;;;;1.30;0.83;;;;;;;;;;10444653;28;20063;-75
2022/01/07 22:26:50;;;;;;;2.13;1.60;;;;;;;;;;10437970;28;20033;-77
2022/01/07 22:31:53;;;;;;;1.03;0.80;;;;;;;;;;10489963;22;20424;-72
2022/01/07 22:36:59;;;;;;;3.77;1.87;;;;;;;;;;10496979;28;20067;-73
2022/01/07 22:42:02;;;;;;;2.10;1.10;;;;;;;;;;10511599;28;20115;-73
2022/01/07 22:47:05;;;;;;;2.53;1.57;;;;;;;;;;10486101;28;20051;-73
2022/01/07 22:52:10;;;;;;;6.20;2.70;;;;;;;;;;10513477;28;20060;-72
2022/01/07 22:57:12;;;;;;;;;;;;;;;;;;10503699;28;20081;-73
2022/01/07 23:02:15;;;;;;;1.60;1.10;;;;;;;;;;10489776;28;19924;-74
2022/01/07 23:07:20;;;;;;;2.90;2.00;;;;;;;;;;10508488;28;20067;-73
2022/01/07 23:12:22;;;;;;;4.73;2.23;;;;;;;;;;10509468;28;20036;-73
2022/01/07 23:17:25;;;;;;;5.07;2.50;;;;;;;;;;10486645;28;20043;-73
2022/01/07 23:22:30;;;;;;;1.50;0.40;;;;;;;;;;10488623;28;20078;-73
2022/01/07 23:27:32;;;;;;;;;;;;;;;;;;10507212;28;20078;-73
2022/01/07 23:32:35;;;;;;;4.23;2.53;;;;;;;;;;10491499;28;20297;-74
2022/01/07 23:37:39;;;;;;;2.57;1.47;;;;;;;;;;10485789;28;20485;-73
2022/01/07 23:42:42;;;;;;;3.67;1.33;;;;;;;;;;10506560;28;20147;-73
2022/01/07 23:47:45;;;;;;;0.73;0.73;;;;;;;;;;10502034;28;20130;-73
2022/01/07 23:52:52;;;;;;;3.73;2.07;;;;;;;;;;10490749;28;20041;-74
2022/01/07 23:57:58;;;;;;;3.83;1.77;;;;;;;;;;10485794;28;20396;-74
